createdAt,value
2023-04-08T00:00:27.048Z,24.75
2023-04-08T00:02:53.878Z,26.58
2023-04-08T00:05:21.746Z,27.75
2023-04-08T00:07:48.635Z,27.80
2023-04-08T00:10:15.475Z,31.05
2023-04-08T00:12:42.142Z,32.10
2023-04-08T00:15:09.039Z,29.60
2023-04-08T00:17:35.961Z,30.75
2023-04-08T00:20:03.061Z,26.75
2023-04-08T00:22:29.676Z,26.73
2023-04-08T00:24:57.985Z,27.38
2023-04-08T00:27:27.749Z,24.42
2023-04-08T00:29:54.458Z,25.05
2023-04-08T00:32:21.598Z,24.50
2023-04-08T00:34:48.192Z,22.48
2023-04-08T00:37:14.864Z,23.30
2023-04-08T00:39:41.597Z,25.38
2023-04-08T00:42:08.280Z,25.08
2023-04-08T00:44:34.896Z,25.27
2023-04-08T00:47:01.844Z,25.30
2023-04-08T00:49:28.422Z,23.02
2023-04-08T00:51:55.825Z,23.75
2023-04-08T00:54:22.537Z,24.83
2023-04-08T00:56:49.121Z,25.42
2023-04-08T00:59:17.761Z,26.13
2023-04-08T01:02:15.483Z,25.10
2023-04-08T01:04:59.352Z,26.90
2023-04-08T01:07:49.952Z,27.17
2023-04-08T01:10:22.309Z,25.48
2023-04-08T01:13:02.012Z,24.25
2023-04-08T01:15:30.803Z,23.42
2023-04-08T01:17:59.574Z,23.75
2023-04-08T01:20:27.342Z,22.95
2023-04-08T01:23:05.754Z,23.95
2023-04-08T01:25:36.668Z,23.45
2023-04-08T01:28:13.203Z,24.33
2023-04-08T01:30:41.490Z,23.00
2023-04-08T01:33:15.241Z,23.35
2023-04-08T01:35:41.986Z,20.77
2023-04-08T01:38:11.212Z,18.38
2023-04-08T01:40:39.816Z,18.90
2023-04-08T01:43:09.779Z,19.35
2023-04-08T01:45:36.334Z,18.65
2023-04-08T01:48:04.147Z,17.67
2023-04-08T01:50:32.054Z,16.45
2023-04-08T01:53:00.712Z,13.95
2023-04-08T01:55:28.961Z,12.93
2023-04-08T01:57:59.790Z,13.82
2023-04-08T02:00:29.795Z,13.80
2023-04-08T02:02:57.821Z,13.18
2023-04-08T02:05:24.742Z,13.48
2023-04-08T02:07:52.226Z,14.93
2023-04-08T02:10:18.771Z,15.15
2023-04-08T02:12:46.788Z,18.02
2023-04-08T02:15:14.493Z,18.58
2023-04-08T02:17:45.716Z,23.65
2023-04-08T02:20:23.792Z,22.02
2023-04-08T02:23:14.845Z,21.45
2023-04-08T02:25:44.568Z,23.08
2023-04-08T02:28:12.111Z,24.08
2023-04-08T02:30:43.605Z,22.15
2023-04-08T02:33:12.098Z,21.20
2023-04-08T02:35:41.202Z,21.27
2023-04-08T02:38:09.864Z,19.70
2023-04-08T02:40:37.068Z,19.40
2023-04-08T02:43:03.924Z,20.65
2023-04-08T02:45:33.931Z,19.95
2023-04-08T02:48:01.582Z,20.90
2023-04-08T02:50:28.247Z,21.38
2023-04-08T02:52:55.284Z,21.45
2023-04-08T02:55:21.938Z,20.65
2023-04-08T02:57:49.005Z,20.30
2023-04-08T03:00:16.378Z,19.73
2023-04-08T03:02:43.229Z,19.83
2023-04-08T03:05:10.468Z,20.48
2023-04-08T03:07:37.114Z,20.52
2023-04-08T03:10:04.340Z,20.27
2023-04-08T03:12:31.464Z,20.98
2023-04-08T03:14:58.123Z,20.88
2023-04-08T03:17:24.733Z,20.30
2023-04-08T03:19:51.439Z,20.80
2023-04-08T03:22:17.999Z,21.10
2023-04-08T03:24:44.519Z,21.15
2023-04-08T03:27:12.643Z,20.90
2023-04-08T03:29:39.287Z,20.52
2023-04-08T03:32:06.301Z,21.02
2023-04-08T03:34:34.709Z,22.23
2023-04-08T03:37:01.882Z,22.10
2023-04-08T03:39:28.752Z,21.67
2023-04-08T03:41:55.365Z,24.13
2023-04-08T03:44:22.125Z,22.70
2023-04-08T03:46:48.865Z,22.17
2023-04-08T03:49:15.752Z,21.58
2023-04-08T03:51:42.389Z,22.50
2023-04-08T03:54:09.056Z,22.73
2023-04-08T03:56:35.774Z,22.75
2023-04-08T03:59:02.334Z,21.63
2023-04-08T04:01:30.319Z,20.10
2023-04-08T04:03:57.178Z,21.75
2023-04-08T04:06:23.988Z,21.58
2023-04-08T04:08:51.122Z,21.30
2023-04-08T04:11:17.958Z,22.30
2023-04-08T04:13:44.522Z,21.42
2023-04-08T04:16:11.160Z,20.95
2023-04-08T04:18:38.082Z,20.88
2023-04-08T04:21:07.890Z,20.75
2023-04-08T04:23:34.688Z,20.98
2023-04-08T04:26:01.513Z,20.52
2023-04-08T04:28:28.230Z,22.63
2023-04-08T04:30:56.563Z,22.25
2023-04-08T04:33:23.534Z,21.52
2023-04-08T04:35:50.474Z,20.60
2023-04-08T04:38:17.391Z,20.40
2023-04-08T04:40:44.408Z,23.17
2023-04-08T04:43:11.268Z,25.00
2023-04-08T04:45:37.959Z,25.73
2023-04-08T04:48:04.789Z,26.95
2023-04-08T04:50:31.426Z,24.77
2023-04-08T04:52:58.068Z,21.92
2023-04-08T04:55:24.611Z,22.42
2023-04-08T04:57:51.405Z,23.50
2023-04-08T05:00:18.006Z,23.63
2023-04-08T05:02:44.727Z,23.90
2023-04-08T05:05:11.687Z,22.92
2023-04-08T05:07:39.116Z,22.20
2023-04-08T05:10:06.264Z,23.10
2023-04-08T05:12:33.570Z,22.60
2023-04-08T05:15:00.828Z,22.17
2023-04-08T05:17:27.467Z,23.27
2023-04-08T05:19:54.253Z,22.63
2023-04-08T05:22:20.831Z,23.67
2023-04-08T05:24:47.405Z,23.42
2023-04-08T05:27:14.046Z,23.02
2023-04-08T05:29:40.610Z,23.45
2023-04-08T05:32:07.305Z,23.85
2023-04-08T05:34:34.072Z,21.02
2023-04-08T05:37:00.824Z,21.80
2023-04-08T05:39:27.395Z,22.08
2023-04-08T05:41:54.124Z,21.30
2023-04-08T05:44:20.741Z,19.65
2023-04-08T05:46:47.360Z,19.20
2023-04-08T05:49:14.344Z,21.10
2023-04-08T05:51:41.145Z,20.27
2023-04-08T05:54:07.764Z,18.88
2023-04-08T05:56:34.931Z,19.30
2023-04-08T05:59:01.565Z,22.45
2023-04-08T06:01:28.244Z,21.33
2023-04-08T06:03:56.545Z,20.02
2023-04-08T06:06:23.878Z,20.73
2023-04-08T06:08:50.599Z,20.00
2023-04-08T06:11:17.802Z,17.05
2023-04-08T06:13:44.401Z,18.17
2023-04-08T06:16:17.577Z,19.23
2023-04-08T06:18:45.669Z,18.95
2023-04-08T06:21:12.245Z,18.35
2023-04-08T06:23:38.961Z,16.55
2023-04-08T06:26:05.588Z,16.58
2023-04-08T06:28:32.634Z,16.98
2023-04-08T06:30:59.637Z,16.25
2023-04-08T06:33:26.277Z,15.85
2023-04-08T06:36:01.265Z,16.15
2023-04-08T06:38:27.936Z,15.15
2023-04-08T06:40:54.566Z,10.95
2023-04-08T06:43:21.109Z,9.95
2023-04-08T06:45:47.719Z,9.90
2023-04-08T06:48:14.264Z,9.80
2023-04-08T06:50:40.923Z,10.50
2023-04-08T06:53:07.503Z,10.82
2023-04-08T06:55:34.133Z,10.25
2023-04-08T06:58:02.190Z,10.40
2023-04-08T07:00:28.885Z,11.23
2023-04-08T07:02:55.485Z,10.23
2023-04-08T07:05:22.187Z,11.52
2023-04-08T07:07:48.749Z,10.55
2023-04-08T07:10:15.774Z,10.50
2023-04-08T07:12:42.443Z,10.98
2023-04-08T07:15:09.848Z,10.75
2023-04-08T07:17:36.969Z,10.75
2023-04-08T07:20:03.963Z,10.57
2023-04-08T07:22:30.677Z,11.48
2023-04-08T07:24:57.432Z,11.20
2023-04-08T07:27:24.080Z,11.02
2023-04-08T07:29:54.590Z,12.00
2023-04-08T07:32:21.942Z,11.38
2023-04-08T07:34:48.547Z,12.07
2023-04-08T07:37:15.410Z,11.85
2023-04-08T07:39:41.980Z,11.32
2023-04-08T07:42:08.536Z,11.82
2023-04-08T07:44:35.634Z,13.07
2023-04-08T07:47:02.273Z,12.40
2023-04-08T07:49:28.858Z,11.55
2023-04-08T07:51:55.961Z,11.23
2023-04-08T07:54:22.634Z,10.63
2023-04-08T07:56:49.196Z,11.15
2023-04-08T07:59:16.066Z,10.95
2023-04-08T08:01:42.982Z,9.98
2023-04-08T08:04:09.830Z,10.18
2023-04-08T08:06:36.482Z,10.93
2023-04-08T08:09:03.091Z,11.18
2023-04-08T08:11:29.805Z,9.98
2023-04-08T08:13:56.986Z,10.52
2023-04-08T08:16:27.312Z,9.80
2023-04-08T08:18:54.046Z,10.10
2023-04-08T08:21:20.579Z,10.05
2023-04-08T08:23:47.328Z,11.48
2023-04-08T08:26:14.042Z,11.57
2023-04-08T08:28:40.763Z,10.77
2023-04-08T08:31:07.666Z,11.05
2023-04-08T08:33:34.500Z,11.32
2023-04-08T08:36:01.301Z,11.30
2023-04-08T08:38:27.956Z,10.32
2023-04-08T08:40:58.571Z,10.68
2023-04-08T08:43:25.814Z,11.15
2023-04-08T08:45:52.992Z,11.00
2023-04-08T08:48:19.875Z,12.65
2023-04-08T08:50:46.692Z,11.45
2023-04-08T08:53:13.658Z,12.35
2023-04-08T08:56:05.621Z,11.65
2023-04-08T08:58:28.493Z,11.35
2023-04-08T09:00:55.522Z,12.27
2023-04-08T09:03:24.079Z,12.10
2023-04-08T09:06:02.061Z,11.90
2023-04-08T09:08:33.120Z,12.90
2023-04-08T09:11:17.066Z,9.82
2023-04-08T09:13:45.386Z,12.38
2023-04-08T09:16:15.053Z,13.63
2023-04-08T09:18:44.733Z,12.07
2023-04-08T09:21:12.740Z,11.07
2023-04-08T09:23:47.817Z,12.50
2023-04-08T09:26:22.400Z,8.35
2023-04-08T09:29:24.254Z,11.57
2023-04-08T09:31:56.743Z,11.68
2023-04-08T09:34:24.439Z,10.00
2023-04-08T09:36:52.605Z,10.00
2023-04-08T09:39:19.757Z,11.77
2023-04-08T09:41:50.578Z,11.35
2023-04-08T09:44:20.702Z,7.53
2023-04-08T09:46:50.324Z,8.25
2023-04-08T09:49:26.078Z,10.35
2023-04-08T09:52:04.657Z,9.55
2023-04-08T09:54:55.969Z,9.65
2023-04-08T09:57:33.724Z,10.30
2023-04-08T10:00:14.278Z,10.18
2023-04-08T10:02:59.038Z,11.23
2023-04-08T10:05:27.590Z,8.30
2023-04-08T10:07:56.507Z,8.55
2023-04-08T10:10:23.757Z,9.50
2023-04-08T10:12:51.416Z,10.07
2023-04-08T10:15:32.590Z,9.25
2023-04-08T10:18:08.219Z,10.00
2023-04-08T10:20:34.976Z,10.73
2023-04-08T10:23:01.967Z,9.77
2023-04-08T10:25:33.209Z,9.43
2023-04-08T10:28:01.854Z,10.40
2023-04-08T10:30:28.459Z,7.85
2023-04-08T10:33:00.010Z,8.95
2023-04-08T10:35:31.439Z,10.00
2023-04-08T10:37:59.316Z,9.50
2023-04-08T10:40:26.106Z,9.60
2023-04-08T10:42:56.823Z,4.65
2023-04-08T10:45:23.993Z,8.85
2023-04-08T10:47:50.957Z,9.38
2023-04-08T10:50:19.399Z,8.10
2023-04-08T10:52:48.715Z,7.20
2023-04-08T10:55:16.676Z,9.90
2023-04-08T10:57:43.270Z,8.88
2023-04-08T11:00:18.815Z,8.35
2023-04-08T11:02:45.775Z,8.35
2023-04-08T11:05:31.380Z,7.30
2023-04-08T11:07:59.230Z,9.93
2023-04-08T11:10:27.114Z,9.48
2023-04-08T11:12:57.414Z,11.23
2023-04-08T11:15:30.395Z,7.25
2023-04-08T11:17:57.366Z,7.72
2023-04-08T11:20:25.481Z,9.73
2023-04-08T11:22:52.136Z,8.75
2023-04-08T11:25:18.828Z,9.00
2023-04-08T11:27:45.425Z,7.70
2023-04-08T11:30:12.525Z,7.57
2023-04-08T11:32:40.177Z,7.72
2023-04-08T11:35:07.896Z,7.50
2023-04-08T11:37:39.807Z,7.82
2023-04-08T11:40:13.203Z,7.25
2023-04-08T11:42:40.270Z,5.13
2023-04-08T11:45:14.775Z,5.57
2023-04-08T11:47:41.726Z,7.22
2023-04-08T11:50:09.322Z,6.70
2023-04-08T11:52:48.904Z,5.50
2023-04-08T11:55:41.994Z,3.95
2023-04-08T11:58:08.652Z,5.78
2023-04-08T12:00:35.370Z,4.38
2023-04-08T12:03:02.028Z,6.25
2023-04-08T12:05:28.690Z,5.93
2023-04-08T12:07:55.263Z,6.32
2023-04-08T12:10:22.052Z,5.60
2023-04-08T12:12:48.606Z,5.05
2023-04-08T12:15:16.141Z,6.18
2023-04-08T12:17:43.933Z,5.57
2023-04-08T12:20:12.256Z,6.50
2023-04-08T12:22:39.822Z,7.10
2023-04-08T12:25:06.826Z,7.13
2023-04-08T12:27:36.110Z,5.45
2023-04-08T12:30:03.784Z,5.88
2023-04-08T12:32:30.547Z,4.38
2023-04-08T12:34:57.329Z,3.47
2023-04-08T12:37:24.413Z,6.10
2023-04-08T12:39:51.634Z,2.60
2023-04-08T12:42:18.367Z,3.97
2023-04-08T12:44:45.006Z,4.22
2023-04-08T12:47:11.611Z,3.90
2023-04-08T12:52:08.574Z,4.80
2023-04-08T12:54:35.285Z,4.32
2023-04-08T12:57:02.964Z,4.90
2023-04-08T12:59:29.662Z,4.55
2023-04-08T13:01:56.357Z,1.92
2023-04-08T13:04:23.016Z,4.50
2023-04-08T13:06:49.587Z,4.82
2023-04-08T13:09:16.444Z,4.63
2023-04-08T13:11:43.142Z,3.35
2023-04-08T13:14:09.781Z,3.72
2023-04-08T13:16:37.346Z,4.53
2023-04-08T13:19:04.076Z,4.88
2023-04-08T13:21:31.455Z,3.95
2023-04-08T13:23:58.208Z,3.67
2023-04-08T13:26:24.884Z,3.42
2023-04-08T13:28:57.249Z,4.25
2023-04-08T13:31:26.798Z,5.28
2023-04-08T13:33:56.015Z,6.13
2023-04-08T13:36:24.425Z,5.47
2023-04-08T13:38:51.055Z,5.13
2023-04-08T13:41:18.063Z,5.00
2023-04-08T13:43:44.670Z,5.38
2023-04-08T13:46:11.308Z,6.13
2023-04-08T13:48:38.080Z,4.03
2023-04-08T13:51:05.568Z,4.28
2023-04-08T13:53:32.161Z,3.40
2023-04-08T13:55:59.242Z,4.68
2023-04-08T13:58:28.982Z,5.32
2023-04-08T14:00:56.020Z,3.58
2023-04-08T14:03:22.692Z,5.03
2023-04-08T14:05:51.204Z,5.35
2023-04-08T14:08:25.052Z,3.38
2023-04-08T14:10:52.404Z,4.60
2023-04-08T14:13:19.452Z,4.57
2023-04-08T14:15:46.954Z,4.57
2023-04-08T14:18:14.263Z,3.90
2023-04-08T14:20:41.432Z,4.57
2023-04-08T14:23:08.104Z,3.80
2023-04-08T14:25:34.733Z,3.47
2023-04-08T14:28:01.519Z,3.67
2023-04-08T14:30:28.907Z,4.20
2023-04-08T14:32:55.840Z,5.00
2023-04-08T14:35:23.145Z,5.57
2023-04-08T14:37:49.749Z,6.22
2023-04-08T14:40:16.672Z,5.93
2023-04-08T14:42:44.950Z,6.75
2023-04-08T14:45:11.622Z,7.05
2023-04-08T14:47:38.199Z,6.43
2023-04-08T14:50:05.133Z,5.95
2023-04-08T14:52:31.836Z,6.28
2023-04-08T14:54:58.454Z,5.53
2023-04-08T14:57:25.694Z,5.10
2023-04-08T14:59:52.471Z,4.68
2023-04-08T15:02:19.219Z,4.93
2023-04-08T15:04:46.013Z,4.85
2023-04-08T15:07:12.821Z,4.95
2023-04-08T15:09:39.454Z,5.88
2023-04-08T15:12:06.465Z,4.55
2023-04-08T15:14:33.046Z,3.90
2023-04-08T15:16:59.791Z,4.43
2023-04-08T15:19:26.444Z,4.35
2023-04-08T15:21:53.008Z,4.28
2023-04-08T15:24:20.266Z,4.05
2023-04-08T15:26:46.880Z,4.38
2023-04-08T15:29:13.501Z,4.25
2023-04-08T15:31:40.212Z,4.22
2023-04-08T15:34:06.956Z,5.65
2023-04-08T15:36:35.922Z,5.43
2023-04-08T15:39:02.552Z,5.78
2023-04-08T15:41:29.429Z,5.25
2023-04-08T15:43:56.204Z,5.20
2023-04-08T15:46:23.404Z,4.95
2023-04-08T15:48:51.038Z,5.07
2023-04-08T15:51:18.108Z,5.68
2023-04-08T15:53:44.787Z,5.65
2023-04-08T15:56:18.231Z,6.05
2023-04-08T15:58:46.352Z,5.40
2023-04-08T16:01:13.354Z,6.70
2023-04-08T16:03:40.003Z,6.45
2023-04-08T16:06:07.719Z,7.47
2023-04-08T16:08:34.852Z,7.68
2023-04-08T16:11:04.575Z,6.85
2023-04-08T16:13:31.534Z,7.20
2023-04-08T16:16:01.518Z,9.07
2023-04-08T16:18:28.758Z,9.15
2023-04-08T16:20:56.690Z,10.73
2023-04-08T16:23:23.481Z,10.15
2023-04-08T16:25:50.321Z,10.10
2023-04-08T16:28:18.074Z,9.40
2023-04-08T16:30:44.736Z,9.98
2023-04-08T16:33:11.503Z,10.13
2023-04-08T16:35:38.691Z,10.70
2023-04-08T16:38:06.151Z,9.20
2023-04-08T16:40:33.670Z,7.32
2023-04-08T16:43:01.191Z,8.90
2023-04-08T16:45:32.451Z,9.60
2023-04-08T16:48:00.330Z,9.85
2023-04-08T16:50:28.361Z,10.77
2023-04-08T16:52:55.381Z,8.48
2023-04-08T16:55:21.991Z,9.05
2023-04-08T16:57:48.682Z,9.65
2023-04-08T17:00:16.861Z,10.25
2023-04-08T17:02:45.086Z,11.05
2023-04-08T17:05:11.757Z,11.35
2023-04-08T17:07:38.440Z,12.52
2023-04-08T17:10:05.617Z,11.23
2023-04-08T17:12:33.076Z,11.50
2023-04-08T17:14:59.613Z,10.77
2023-04-08T17:17:26.212Z,9.27
2023-04-08T17:19:53.174Z,8.90
2023-04-08T17:22:19.800Z,9.05
2023-04-08T17:24:48.032Z,8.63
2023-04-08T17:27:14.887Z,10.75
2023-04-08T17:29:41.527Z,11.68
2023-04-08T17:32:08.313Z,12.90
2023-04-08T17:34:35.133Z,13.75
2023-04-08T17:37:01.749Z,13.55
2023-04-08T17:39:28.329Z,14.32
2023-04-08T17:41:54.887Z,14.57
2023-04-08T17:44:21.810Z,15.25
2023-04-08T17:46:48.403Z,14.55
2023-04-08T17:49:14.983Z,15.07
2023-04-08T17:51:41.703Z,14.93
2023-04-08T17:54:08.355Z,14.70
2023-04-08T17:56:34.967Z,15.93
2023-04-08T17:59:02.028Z,15.80
2023-04-08T18:01:28.644Z,16.98
2023-04-08T18:03:56.158Z,15.30
2023-04-08T18:06:22.918Z,15.32
2023-04-08T18:08:49.783Z,15.65
2023-04-08T18:11:16.354Z,15.93
2023-04-08T18:13:42.969Z,14.55
2023-04-08T18:16:20.767Z,14.23
2023-04-08T18:18:48.188Z,14.23
2023-04-08T18:21:17.973Z,17.58
2023-04-08T18:23:47.061Z,16.40
2023-04-08T18:26:13.793Z,16.42
2023-04-08T18:28:40.463Z,15.95
2023-04-08T18:31:07.859Z,16.67
2023-04-08T18:33:34.675Z,17.85
2023-04-08T18:36:12.766Z,18.98
2023-04-08T18:38:41.088Z,17.67
2023-04-08T18:41:08.343Z,17.08
2023-04-08T18:43:35.051Z,16.15
2023-04-08T18:46:01.981Z,17.00
2023-04-08T18:48:28.979Z,17.23
2023-04-08T18:50:55.583Z,15.80
2023-04-08T18:53:23.388Z,15.88
2023-04-08T18:55:51.408Z,15.60
2023-04-08T18:58:18.296Z,15.32
2023-04-08T19:00:45.184Z,16.73
2023-04-08T19:03:11.984Z,17.23
2023-04-08T19:05:39.000Z,18.10
2023-04-08T19:08:06.155Z,18.15
2023-04-08T19:10:33.995Z,18.02
2023-04-08T19:13:01.319Z,19.02
2023-04-08T19:15:29.181Z,17.67
2023-04-08T19:17:56.638Z,18.77
2023-04-08T19:20:23.428Z,18.00
2023-04-08T19:22:50.414Z,18.98
2023-04-08T19:25:17.653Z,19.73
2023-04-08T19:27:46.020Z,16.10
2023-04-08T19:30:13.358Z,17.17
2023-04-08T19:32:40.242Z,19.63
2023-04-08T19:35:07.564Z,18.00
2023-04-08T19:37:34.409Z,18.50
2023-04-08T19:40:01.183Z,18.02
2023-04-08T19:42:27.809Z,20.70
2023-04-08T19:44:55.261Z,17.38
2023-04-08T19:47:22.164Z,18.98
2023-04-08T19:49:49.066Z,21.15
2023-04-08T19:52:15.668Z,18.58
2023-04-08T19:54:43.406Z,20.30
2023-04-08T19:57:11.051Z,21.83
2023-04-08T19:59:38.214Z,19.13
2023-04-08T20:02:05.070Z,19.63
2023-04-08T20:04:32.194Z,20.38
2023-04-08T20:07:02.602Z,19.77
2023-04-08T20:09:32.787Z,19.15
2023-04-08T20:12:06.042Z,17.52
2023-04-08T20:14:35.971Z,16.85
2023-04-08T20:17:02.885Z,16.85
2023-04-08T20:19:29.531Z,18.00
2023-04-08T20:21:57.390Z,17.73
2023-04-08T20:24:24.033Z,17.15
2023-04-08T20:26:50.596Z,17.88
2023-04-08T20:29:17.220Z,17.20
2023-04-08T20:31:44.970Z,17.98
2023-04-08T20:34:12.126Z,17.30
2023-04-08T20:36:39.903Z,16.70
2023-04-08T20:39:10.039Z,17.50
2023-04-08T20:41:37.750Z,17.80
2023-04-08T20:44:06.188Z,18.52
2023-04-08T20:46:32.902Z,19.75
2023-04-08T20:48:59.638Z,21.88
2023-04-08T20:51:27.665Z,22.35
2023-04-08T20:53:54.337Z,18.23
2023-04-08T20:56:21.368Z,18.88
2023-04-08T20:58:48.015Z,19.67
2023-04-08T21:01:14.610Z,19.58
2023-04-08T21:03:41.353Z,16.55
2023-04-08T21:06:08.403Z,16.80
2023-04-08T21:08:34.950Z,17.77
2023-04-08T21:11:01.675Z,16.75
2023-04-08T21:13:28.235Z,17.83
2023-04-08T21:15:54.802Z,18.88
2023-04-08T21:18:21.421Z,18.27
2023-04-08T21:20:49.426Z,16.92
2023-04-08T21:23:16.257Z,16.55
2023-04-08T21:25:42.840Z,13.60
2023-04-08T21:28:09.468Z,13.70
2023-04-08T21:30:37.002Z,15.82
2023-04-08T21:33:03.826Z,16.08
2023-04-08T21:35:30.654Z,14.27
2023-04-08T21:37:57.349Z,13.98
2023-04-08T21:40:24.207Z,15.02
2023-04-08T21:42:51.630Z,14.00
2023-04-08T21:45:18.562Z,15.32
2023-04-08T21:47:45.655Z,16.35
2023-04-08T21:50:12.229Z,16.17
2023-04-08T21:52:39.154Z,16.48
2023-04-08T21:55:07.284Z,16.52
2023-04-08T21:57:34.002Z,17.23
2023-04-08T22:00:00.641Z,15.60
2023-04-08T22:02:27.550Z,16.63
2023-04-08T22:05:12.774Z,16.55
2023-04-08T22:07:39.557Z,14.82
2023-04-08T22:10:06.717Z,14.95
2023-04-08T22:12:34.315Z,14.00
2023-04-08T22:15:00.940Z,15.45
2023-04-08T22:17:27.590Z,14.80
2023-04-08T22:19:54.282Z,14.25
2023-04-08T22:22:21.116Z,13.88
2023-04-08T22:24:47.841Z,14.02
2023-04-08T22:27:14.509Z,12.60
2023-04-08T22:29:41.060Z,13.23
2023-04-08T22:32:07.656Z,12.32
2023-04-08T22:34:35.674Z,10.98
2023-04-08T22:37:02.336Z,13.18
2023-04-08T22:39:29.057Z,13.02
2023-04-08T22:41:56.779Z,12.30
2023-04-08T22:44:23.425Z,11.27
2023-04-08T22:46:50.155Z,13.18
2023-04-08T22:49:16.920Z,13.48
2023-04-08T22:51:43.527Z,12.48
2023-04-08T22:54:10.184Z,13.00
2023-04-08T22:56:36.917Z,13.25
2023-04-08T22:59:03.601Z,14.13
2023-04-08T23:01:30.534Z,12.32
2023-04-08T23:03:57.229Z,11.98
2023-04-08T23:06:23.814Z,13.05
2023-04-08T23:08:50.598Z,13.48
2023-04-08T23:11:17.464Z,12.75
2023-04-08T23:13:44.114Z,13.18
2023-04-08T23:16:11.012Z,13.88
2023-04-08T23:18:37.581Z,12.13
2023-04-08T23:21:04.704Z,12.00
2023-04-08T23:23:31.589Z,9.70
2023-04-08T23:25:58.253Z,12.43
2023-04-08T23:28:24.772Z,12.63
2023-04-08T23:30:51.425Z,12.77
2023-04-08T23:33:18.061Z,11.50
2023-04-08T23:35:44.958Z,12.88
2023-04-08T23:38:11.748Z,12.10
2023-04-08T23:40:38.474Z,12.25
2023-04-08T23:43:05.228Z,10.88
2023-04-08T23:45:31.849Z,11.75
2023-04-08T23:47:58.831Z,11.93
2023-04-08T23:50:25.470Z,11.85
2023-04-08T23:52:52.313Z,11.02
2023-04-08T23:55:18.949Z,11.65
2023-04-08T23:57:45.619Z,11.23
